createdAt,value
2018-03-29T00:00:41.937Z,8.60
2018-03-29T00:03:08.194Z,8.60
2018-03-29T00:05:35.321Z,8.50
2018-03-29T00:08:02.402Z,8.60
2018-03-29T00:10:28.675Z,8.60
2018-03-29T00:12:54.932Z,8.60
2018-03-29T00:15:23.121Z,8.70
2018-03-29T00:17:50.109Z,8.70
2018-03-29T00:20:17.017Z,8.70
2018-03-29T00:22:44.017Z,8.60
2018-03-29T00:25:10.245Z,8.60
2018-03-29T00:27:36.980Z,8.60
2018-03-29T00:30:03.995Z,8.70
2018-03-29T00:32:30.970Z,8.70
2018-03-29T00:34:57.201Z,8.70
2018-03-29T00:37:23.825Z,8.70
2018-03-29T00:39:51.114Z,8.60
2018-03-29T00:42:17.929Z,8.60
2018-03-29T00:44:45.810Z,8.60
2018-03-29T00:47:12.802Z,8.50
2018-03-29T00:49:39.475Z,8.50
2018-03-29T00:52:05.833Z,8.50
2018-03-29T00:54:33.369Z,8.60
2018-03-29T00:56:59.628Z,8.50
2018-03-29T00:59:26.611Z,8.50
2018-03-29T01:01:52.873Z,8.50
2018-03-29T01:04:19.113Z,8.50
2018-03-29T01:06:46.083Z,8.60
2018-03-29T01:09:12.332Z,8.50
2018-03-29T01:11:38.569Z,8.50
2018-03-29T01:14:06.140Z,8.40
2018-03-29T01:16:33.132Z,8.50
2018-03-29T01:18:59.417Z,8.50
2018-03-29T01:21:26.081Z,8.50
2018-03-29T01:23:52.338Z,8.50
2018-03-29T01:26:19.251Z,8.40
2018-03-29T01:28:46.917Z,8.40
2018-03-29T01:31:13.905Z,8.30
2018-03-29T01:33:40.137Z,8.40
2018-03-29T01:36:06.921Z,8.30
2018-03-29T01:38:33.897Z,8.30
2018-03-29T01:41:00.889Z,8.40
2018-03-29T01:43:27.601Z,8.30
2018-03-29T01:45:54.579Z,8.30
2018-03-29T01:48:21.353Z,8.30
2018-03-29T01:50:47.578Z,8.30
2018-03-29T01:53:14.265Z,8.30
2018-03-29T01:55:40.516Z,8.30
2018-03-29T01:58:07.510Z,8.30
2018-03-29T02:00:33.777Z,8.30
2018-03-29T02:03:00.034Z,8.30
2018-03-29T02:05:27.129Z,8.20
2018-03-29T02:07:53.804Z,8.20
2018-03-29T02:10:20.577Z,8.20
2018-03-29T02:12:48.106Z,8.20
2018-03-29T02:15:14.345Z,8.20
2018-03-29T02:17:40.593Z,8.20
2018-03-29T02:20:07.457Z,8.10
2018-03-29T02:22:34.441Z,8.20
2018-03-29T02:25:01.349Z,8.30
2018-03-29T02:27:28.074Z,8.30
2018-03-29T02:29:54.850Z,8.30
2018-03-29T02:32:21.868Z,8.20
2018-03-29T02:34:48.754Z,8.20
2018-03-29T02:37:15.740Z,8.30
2018-03-29T02:39:42.659Z,8.30
2018-03-29T02:42:10.202Z,8.30
2018-03-29T02:44:36.450Z,8.30
2018-03-29T02:47:03.436Z,8.30
2018-03-29T02:49:30.145Z,8.30
2018-03-29T02:51:57.131Z,8.30
2018-03-29T02:54:23.414Z,8.30
2018-03-29T02:56:49.970Z,8.30
2018-03-29T02:59:16.977Z,8.20
2018-03-29T03:01:43.315Z,8.20
2018-03-29T03:04:09.905Z,8.20
2018-03-29T03:06:37.561Z,8.10
2018-03-29T03:09:04.462Z,8.20
2018-03-29T03:11:30.710Z,8.20
2018-03-29T03:13:56.962Z,8.10
2018-03-29T03:16:23.512Z,8.00
2018-03-29T03:18:49.756Z,8.00
2018-03-29T03:21:16.773Z,8.00
2018-03-29T03:23:43.561Z,8.00
2018-03-29T03:26:10.613Z,8.10
2018-03-29T03:28:37.938Z,8.10
2018-03-29T03:31:04.188Z,8.10
2018-03-29T03:33:30.433Z,8.10
2018-03-29T03:35:56.986Z,8.10
2018-03-29T03:38:23.977Z,8.10
2018-03-29T03:40:50.981Z,8.10
2018-03-29T03:43:18.749Z,8.10
2018-03-29T03:45:44.969Z,8.10
2018-03-29T03:48:12.660Z,8.00
2018-03-29T03:50:39.641Z,7.90
2018-03-29T03:53:05.898Z,8.00
2018-03-29T03:55:32.678Z,8.00
2018-03-29T03:57:58.928Z,8.00
2018-03-29T04:00:25.913Z,8.10
2018-03-29T04:02:52.200Z,8.10
2018-03-29T04:05:18.449Z,8.10
2018-03-29T04:07:46.003Z,8.10
2018-03-29T04:10:14.169Z,8.10
2018-03-29T04:12:40.788Z,8.00
2018-03-29T04:15:07.021Z,8.10
2018-03-29T04:17:33.609Z,8.10
2018-03-29T04:20:01.177Z,8.10
2018-03-29T04:22:28.713Z,8.10
2018-03-29T04:24:55.517Z,8.00
2018-03-29T04:27:22.204Z,8.10
2018-03-29T04:29:48.451Z,8.10
2018-03-29T04:32:15.717Z,8.10
2018-03-29T04:34:43.007Z,8.10
2018-03-29T04:37:09.255Z,8.10
2018-03-29T04:39:35.933Z,8.10
2018-03-29T04:42:03.409Z,8.10
2018-03-29T04:44:29.650Z,8.10
2018-03-29T04:46:56.626Z,8.10
2018-03-29T04:49:23.229Z,8.10
2018-03-29T04:51:49.473Z,8.10
2018-03-29T04:54:16.817Z,8.10
2018-03-29T04:56:43.073Z,8.10
2018-03-29T04:59:10.569Z,8.10
2018-03-29T05:01:36.817Z,8.10
2018-03-29T05:04:03.747Z,8.00
2018-03-29T05:06:30.324Z,8.00
2018-03-29T05:08:56.601Z,7.90
2018-03-29T05:11:23.610Z,7.80
2018-03-29T05:13:49.868Z,7.80
2018-03-29T05:16:18.803Z,7.70
2018-03-29T05:18:45.545Z,7.70
2018-03-29T05:21:11.809Z,7.70
2018-03-29T05:23:38.243Z,7.70
2018-03-29T05:26:06.524Z,7.60
2018-03-29T05:28:33.099Z,7.60
2018-03-29T05:30:59.361Z,7.60
2018-03-29T05:33:26.353Z,7.50
2018-03-29T05:35:52.641Z,7.50
2018-03-29T05:38:19.620Z,7.40
2018-03-29T05:40:46.618Z,7.40
2018-03-29T05:43:13.539Z,7.40
2018-03-29T05:45:40.349Z,7.50
2018-03-29T05:48:08.106Z,7.40
2018-03-29T05:50:34.956Z,7.40
2018-03-29T05:53:02.309Z,7.40
2018-03-29T05:55:28.553Z,7.40
2018-03-29T05:57:55.533Z,7.40
2018-03-29T06:00:22.233Z,7.40
2018-03-29T06:02:50.025Z,7.40
2018-03-29T06:05:17.377Z,7.50
2018-03-29T06:07:44.842Z,7.50
2018-03-29T06:10:11.825Z,7.50
2018-03-29T06:12:38.635Z,7.50
2018-03-29T06:15:12.329Z,7.50
2018-03-29T06:17:39.073Z,7.50
2018-03-29T06:20:06.141Z,7.50
2018-03-29T06:22:33.208Z,7.60
2018-03-29T06:25:00.187Z,7.60
2018-03-29T06:27:26.705Z,7.60
2018-03-29T06:29:53.559Z,7.60
2018-03-29T06:32:19.841Z,7.60
2018-03-29T06:34:46.101Z,7.70
2018-03-29T06:37:13.189Z,7.70
2018-03-29T06:39:40.201Z,7.70
2018-03-29T06:42:06.954Z,7.70
2018-03-29T06:44:33.939Z,7.80
2018-03-29T06:47:00.232Z,7.80
2018-03-29T06:49:26.993Z,7.90
2018-03-29T06:51:54.663Z,7.90
2018-03-29T06:54:21.645Z,7.90
2018-03-29T06:56:47.917Z,7.80
2018-03-29T06:59:15.826Z,7.90
2018-03-29T07:01:42.809Z,7.80
2018-03-29T07:04:09.084Z,7.80
2018-03-29T07:06:35.771Z,7.90
2018-03-29T07:09:02.082Z,7.90
2018-03-29T07:11:29.730Z,7.80
2018-03-29T07:13:56.601Z,7.80
2018-03-29T07:16:23.608Z,7.90
2018-03-29T07:18:49.861Z,7.90
2018-03-29T07:21:16.417Z,8.00
2018-03-29T07:23:42.660Z,8.10
2018-03-29T07:26:10.431Z,8.10
2018-03-29T07:28:37.989Z,8.10
2018-03-29T07:31:04.985Z,8.20
2018-03-29T07:33:31.801Z,8.20
2018-03-29T07:35:58.789Z,8.20
2018-03-29T07:38:25.681Z,8.20
2018-03-29T07:40:52.108Z,8.30
2018-03-29T07:43:19.179Z,8.40
2018-03-29T07:45:46.170Z,8.50
2018-03-29T07:48:12.997Z,8.50
2018-03-29T07:50:39.244Z,8.50
2018-03-29T07:53:05.490Z,8.50
2018-03-29T07:55:31.754Z,8.50
2018-03-29T07:57:58.543Z,8.40
2018-03-29T08:00:24.772Z,8.50
2018-03-29T08:02:51.050Z,8.50
2018-03-29T08:05:17.529Z,8.50
2018-03-29T08:07:44.385Z,8.50
2018-03-29T08:10:12.369Z,8.30
2018-03-29T08:12:39.353Z,7.80
2018-03-29T08:15:05.637Z,7.70
2018-03-29T08:17:31.889Z,7.70
2018-03-29T08:19:58.873Z,7.40
2018-03-29T08:22:25.681Z,7.40
2018-03-29T08:24:53.297Z,7.20
2018-03-29T08:27:20.363Z,7.10
2018-03-29T08:29:46.577Z,7.00
2018-03-29T08:32:12.862Z,6.80
2018-03-29T08:34:39.409Z,6.80
2018-03-29T08:37:06.425Z,6.70
2018-03-29T08:39:33.113Z,6.70
2018-03-29T08:42:00.619Z,6.60
2018-03-29T08:44:26.881Z,6.60
2018-03-29T08:46:53.155Z,6.60
2018-03-29T08:49:19.866Z,6.60
2018-03-29T08:51:46.122Z,6.80
2018-03-29T08:54:13.890Z,6.80
2018-03-29T08:56:40.883Z,6.80
2018-03-29T08:59:07.137Z,6.80
2018-03-29T09:01:33.404Z,6.90
2018-03-29T09:03:59.643Z,6.90
2018-03-29T09:06:27.004Z,6.90
2018-03-29T09:08:55.028Z,6.90
2018-03-29T09:11:21.268Z,6.90
2018-03-29T09:13:48.261Z,7.00
2018-03-29T09:16:15.321Z,7.00
2018-03-29T09:18:42.311Z,7.10
2018-03-29T09:21:09.172Z,7.00
2018-03-29T09:23:36.169Z,7.10
2018-03-29T09:26:03.596Z,7.30
2018-03-29T09:28:29.834Z,7.20
2018-03-29T09:30:56.089Z,7.20
2018-03-29T09:33:22.378Z,7.40
2018-03-29T09:35:48.637Z,7.40
2018-03-29T09:38:15.045Z,7.40
2018-03-29T09:40:42.026Z,7.30
2018-03-29T09:43:09.013Z,7.40
2018-03-29T09:45:36.011Z,7.40
2018-03-29T09:48:02.825Z,7.40
2018-03-29T09:50:29.554Z,7.50
2018-03-29T09:52:56.979Z,7.50
2018-03-29T09:55:23.226Z,7.50
2018-03-29T09:57:49.474Z,7.50
2018-03-29T10:00:16.229Z,7.50
2018-03-29T10:02:50.252Z,7.50
2018-03-29T10:05:17.710Z,7.50
2018-03-29T10:07:45.131Z,7.50
2018-03-29T10:10:11.413Z,7.50
2018-03-29T10:12:39.068Z,7.60
2018-03-29T10:15:06.070Z,7.70
2018-03-29T10:17:32.326Z,7.70
2018-03-29T10:19:58.601Z,7.70
2018-03-29T10:22:26.153Z,7.80
2018-03-29T10:24:53.155Z,7.70
2018-03-29T10:27:19.410Z,7.70
2018-03-29T10:29:45.680Z,7.70
2018-03-29T10:32:12.666Z,7.70
2018-03-29T10:34:39.037Z,7.70
2018-03-29T10:37:05.317Z,7.80
2018-03-29T10:39:32.257Z,7.80
2018-03-29T10:41:59.915Z,7.80
2018-03-29T10:44:26.905Z,7.70
2018-03-29T10:46:53.153Z,7.70
2018-03-29T10:49:19.957Z,7.80
2018-03-29T10:51:46.946Z,7.60
2018-03-29T10:54:13.211Z,7.60
2018-03-29T10:56:39.485Z,7.50
2018-03-29T10:59:06.370Z,7.40
2018-03-29T11:01:33.307Z,7.50
2018-03-29T11:04:00.127Z,7.40
2018-03-29T11:06:28.529Z,7.20
2018-03-29T11:08:54.784Z,7.20
2018-03-29T11:11:21.780Z,7.20
2018-03-29T11:13:48.767Z,7.20
2018-03-29T11:16:15.021Z,7.20
2018-03-29T11:18:43.155Z,7.20
2018-03-29T11:21:10.136Z,7.10
2018-03-29T11:23:36.396Z,7.10
2018-03-29T11:26:03.080Z,7.10
2018-03-29T11:28:30.069Z,7.20
2018-03-29T11:30:56.407Z,7.20
2018-03-29T11:33:22.957Z,7.30
2018-03-29T11:35:49.220Z,7.30
2018-03-29T11:38:15.468Z,7.40
2018-03-29T11:40:43.045Z,7.30
2018-03-29T11:43:10.801Z,7.40
2018-03-29T11:45:37.057Z,7.30
2018-03-29T11:48:05.341Z,7.60
2018-03-29T11:50:32.170Z,7.60
2018-03-29T11:52:59.181Z,7.70
2018-03-29T11:55:25.452Z,7.60
2018-03-29T11:57:52.098Z,7.80
2018-03-29T12:00:19.667Z,8.00
2018-03-29T12:02:47.334Z,8.10
2018-03-29T12:05:14.323Z,8.20
2018-03-29T12:07:41.234Z,8.20
2018-03-29T12:10:08.298Z,8.40
2018-03-29T12:12:35.293Z,8.60
2018-03-29T12:15:01.775Z,8.50
2018-03-29T12:17:29.550Z,8.60
2018-03-29T12:19:56.545Z,8.70
2018-03-29T12:22:22.798Z,8.70
2018-03-29T12:24:49.089Z,8.80
2018-03-29T12:27:15.342Z,8.80
2018-03-29T12:29:41.668Z,8.90
2018-03-29T12:32:07.995Z,9.10
2018-03-29T12:34:34.242Z,9.20
2018-03-29T12:37:00.499Z,9.30
2018-03-29T12:39:27.395Z,9.40
2018-03-29T12:41:54.396Z,9.50
2018-03-29T12:44:21.299Z,9.50
2018-03-29T12:46:48.322Z,9.50
2018-03-29T12:49:14.920Z,9.50
2018-03-29T12:51:41.180Z,9.60
2018-03-29T12:54:07.472Z,9.50
2018-03-29T12:56:48.531Z,9.80
2018-03-29T12:59:16.204Z,9.90
2018-03-29T13:01:43.188Z,9.90
2018-03-29T13:04:09.433Z,9.90
2018-03-29T13:06:36.330Z,10.10
2018-03-29T13:09:03.374Z,10.20
2018-03-29T13:11:29.633Z,10.10
2018-03-29T13:13:57.572Z,10.20
2018-03-29T13:16:23.929Z,10.20
2018-03-29T13:18:50.943Z,10.10
2018-03-29T13:21:17.229Z,10.10
2018-03-29T13:23:44.210Z,9.90
2018-03-29T13:26:10.573Z,9.90
2018-03-29T13:28:37.146Z,9.80
2018-03-29T13:31:04.157Z,10.10
2018-03-29T13:33:30.886Z,10.10
2018-03-29T13:35:57.138Z,10.10
2018-03-29T13:38:23.429Z,10.00
2018-03-29T13:40:50.162Z,10.10
2018-03-29T13:43:17.830Z,10.00
2018-03-29T13:45:44.057Z,9.90
2018-03-29T13:48:11.438Z,10.20
2018-03-29T13:50:38.253Z,10.10
2018-03-29T13:53:04.513Z,10.30
2018-03-29T13:55:32.174Z,10.20
2018-03-29T13:58:00.049Z,10.20
2018-03-29T14:00:27.101Z,10.20
2018-03-29T14:02:54.090Z,10.20
2018-03-29T14:05:20.692Z,10.20
2018-03-29T14:07:48.275Z,10.10
2018-03-29T14:10:14.558Z,10.10
2018-03-29T14:12:41.514Z,10.20
2018-03-29T14:15:09.353Z,10.10
2018-03-29T14:17:36.290Z,10.10
2018-03-29T14:20:03.208Z,10.00
2018-03-29T14:22:30.285Z,10.00
2018-03-29T14:24:56.555Z,10.00
2018-03-29T14:27:23.140Z,9.80
2018-03-29T14:29:50.140Z,9.70
2018-03-29T14:32:16.481Z,9.60
2018-03-29T14:34:43.069Z,9.50
2018-03-29T14:37:10.442Z,9.50
2018-03-29T14:39:37.482Z,9.50
2018-03-29T14:42:04.482Z,9.40
2018-03-29T14:44:31.176Z,9.40
2018-03-29T14:46:58.792Z,9.30
2018-03-29T14:49:25.492Z,9.30
2018-03-29T14:51:53.353Z,9.20
2018-03-29T14:54:20.446Z,9.20
2018-03-29T14:56:46.717Z,9.10
2018-03-29T14:59:12.970Z,9.20
2018-03-29T15:01:39.932Z,9.30
2018-03-29T15:04:06.929Z,9.30
2018-03-29T15:06:34.142Z,9.30
2018-03-29T15:09:01.152Z,9.30
2018-03-29T15:11:27.897Z,9.30
2018-03-29T15:13:54.175Z,9.30
2018-03-29T15:16:21.846Z,9.20
2018-03-29T15:18:48.833Z,9.10
2018-03-29T15:21:15.082Z,9.10
2018-03-29T15:23:41.620Z,9.00
2018-03-29T15:26:07.890Z,9.00
2018-03-29T15:28:34.305Z,8.90
2018-03-29T15:31:00.597Z,8.90
2018-03-29T15:33:26.865Z,8.80
2018-03-29T15:35:53.657Z,8.80
2018-03-29T15:38:21.230Z,8.60
2018-03-29T15:40:48.892Z,8.50
2018-03-29T15:43:16.452Z,8.40
2018-03-29T15:45:43.442Z,8.40
2018-03-29T15:48:10.253Z,8.40
2018-03-29T15:50:37.726Z,8.30
2018-03-29T15:53:05.073Z,8.20
2018-03-29T15:55:32.069Z,8.20
2018-03-29T15:57:58.311Z,8.20
2018-03-29T16:00:24.561Z,8.20
2018-03-29T16:02:51.453Z,8.10
2018-03-29T16:05:19.699Z,8.10
2018-03-29T16:07:46.689Z,8.10
2018-03-29T16:10:13.683Z,8.10
2018-03-29T16:12:40.004Z,8.10
2018-03-29T16:15:06.978Z,8.10
2018-03-29T16:17:34.534Z,8.10
2018-03-29T16:20:00.795Z,8.10
2018-03-29T16:22:27.662Z,8.10
2018-03-29T16:24:54.789Z,8.10
2018-03-29T16:27:21.049Z,8.10
2018-03-29T16:29:48.040Z,8.10
2018-03-29T16:32:14.289Z,8.00
2018-03-29T16:34:40.723Z,8.00
2018-03-29T16:37:07.529Z,8.00
2018-03-29T16:39:35.496Z,8.00
2018-03-29T16:42:02.507Z,8.00
2018-03-29T16:44:29.172Z,8.00
2018-03-29T16:46:56.113Z,8.00
2018-03-29T16:49:22.826Z,8.10
2018-03-29T16:51:49.084Z,8.10
2018-03-29T16:54:15.337Z,8.10
2018-03-29T16:56:43.948Z,8.20
2018-03-29T16:59:10.935Z,8.20
2018-03-29T17:01:37.726Z,8.20
2018-03-29T17:04:03.982Z,8.20
2018-03-29T17:06:31.547Z,8.10
2018-03-29T17:08:59.116Z,8.10
2018-03-29T17:11:26.116Z,8.10
2018-03-29T17:13:52.401Z,8.10
2018-03-29T17:16:19.755Z,8.10
2018-03-29T17:18:46.817Z,8.10
2018-03-29T17:21:13.990Z,8.00
2018-03-29T17:23:40.526Z,8.00
2018-03-29T17:26:06.790Z,7.90
2018-03-29T17:28:33.051Z,7.80
2018-03-29T17:30:59.721Z,7.60
2018-03-29T17:33:27.242Z,7.30
2018-03-29T17:35:53.490Z,7.30
2018-03-29T17:38:20.126Z,7.10
2018-03-29T17:40:47.602Z,7.00
2018-03-29T17:43:14.251Z,6.90
2018-03-29T17:45:41.020Z,6.90
2018-03-29T17:48:08.443Z,6.70
2018-03-29T17:50:35.151Z,6.80
2018-03-29T17:53:01.433Z,6.70
2018-03-29T17:55:27.691Z,6.70
2018-03-29T17:57:54.703Z,6.70
2018-03-29T18:00:20.960Z,6.70
2018-03-29T18:02:48.082Z,6.70
2018-03-29T18:05:14.337Z,6.70
2018-03-29T18:07:41.804Z,6.60
2018-03-29T18:10:08.450Z,6.60
2018-03-29T18:12:34.740Z,6.60
2018-03-29T18:15:00.991Z,6.60
2018-03-29T18:17:27.478Z,6.60
2018-03-29T18:19:54.470Z,6.50
2018-03-29T18:22:20.821Z,6.50
2018-03-29T18:24:47.716Z,6.50
2018-03-29T18:27:14.717Z,6.40
2018-03-29T18:29:40.978Z,6.30
2018-03-29T18:32:07.611Z,6.40
2018-03-29T18:34:33.875Z,6.50
2018-03-29T18:37:01.355Z,6.40
2018-03-29T18:39:28.312Z,6.40
2018-03-29T18:41:54.558Z,6.40
2018-03-29T18:44:21.353Z,6.40
2018-03-29T18:46:47.609Z,6.50
2018-03-29T18:49:15.273Z,6.60
2018-03-29T18:51:42.282Z,6.60
2018-03-29T18:54:09.180Z,6.60
2018-03-29T18:56:36.173Z,6.60
2018-03-29T18:59:02.458Z,6.50
2018-03-29T19:01:30.129Z,6.60
2018-03-29T19:03:57.140Z,6.70
2018-03-29T19:06:24.038Z,6.70
2018-03-29T19:08:51.054Z,6.80
2018-03-29T19:11:17.318Z,6.70
2018-03-29T19:13:44.702Z,6.70
2018-03-29T19:16:10.954Z,6.70
2018-03-29T19:18:37.396Z,6.70
2018-03-29T19:21:03.697Z,6.60
2018-03-29T19:23:30.682Z,6.60
2018-03-29T19:25:56.950Z,6.60
2018-03-29T19:28:23.585Z,6.70
2018-03-29T19:30:50.649Z,6.60
2018-03-29T19:33:16.905Z,6.70
2018-03-29T19:35:43.889Z,6.70
2018-03-29T19:38:10.426Z,6.60
2018-03-29T19:40:37.137Z,6.60
2018-03-29T19:43:04.546Z,6.70
2018-03-29T19:45:30.814Z,6.70
2018-03-29T19:47:57.625Z,6.70
2018-03-29T19:50:24.431Z,6.70
2018-03-29T19:52:51.753Z,6.60
2018-03-29T19:55:18.007Z,6.60
2018-03-29T19:57:44.282Z,6.50
2018-03-29T20:00:10.923Z,6.50
2018-03-29T20:02:37.636Z,6.50
2018-03-29T20:05:04.499Z,6.60
2018-03-29T20:07:31.929Z,6.60
2018-03-29T20:09:59.020Z,6.60
2018-03-29T20:12:27.619Z,6.50
2018-03-29T20:14:54.682Z,6.50
2018-03-29T20:17:21.385Z,6.50
2018-03-29T20:19:47.673Z,6.50
2018-03-29T20:22:14.617Z,6.50
2018-03-29T20:24:41.246Z,6.60
2018-03-29T20:27:07.851Z,6.60
2018-03-29T20:29:34.115Z,6.60
2018-03-29T20:32:01.779Z,6.50
2018-03-29T20:34:28.832Z,6.50
2018-03-29T20:36:56.288Z,6.50
2018-03-29T20:39:23.888Z,6.50
2018-03-29T20:41:50.477Z,6.50
2018-03-29T20:44:16.996Z,6.50
2018-03-29T20:46:43.244Z,6.50
2018-03-29T20:49:10.220Z,6.50
2018-03-29T20:51:37.245Z,6.40
2018-03-29T20:54:04.986Z,6.40
2018-03-29T20:56:31.305Z,6.40
2018-03-29T20:58:57.548Z,6.30
2018-03-29T21:01:25.600Z,6.40
2018-03-29T21:03:51.867Z,6.30
2018-03-29T21:06:18.788Z,6.30
2018-03-29T21:08:45.046Z,6.30
2018-03-29T21:11:11.323Z,6.30
2018-03-29T21:13:38.191Z,6.30
2018-03-29T21:16:05.193Z,6.40
2018-03-29T21:18:31.476Z,6.40
2018-03-29T21:20:58.478Z,6.70
2018-03-29T21:23:25.715Z,6.70
2018-03-29T21:25:51.961Z,6.60
2018-03-29T21:28:18.211Z,6.50
2018-03-29T21:30:45.300Z,6.50
2018-03-29T21:33:12.029Z,6.50
2018-03-29T21:35:38.816Z,6.40
2018-03-29T21:38:05.497Z,6.40
2018-03-29T21:40:33.104Z,6.40
2018-03-29T21:43:01.028Z,6.30
2018-03-29T21:45:27.281Z,6.30
2018-03-29T21:47:53.993Z,6.30
2018-03-29T21:50:20.806Z,6.30
2018-03-29T21:52:48.264Z,6.30
2018-03-29T21:55:15.411Z,6.20
2018-03-29T21:57:42.348Z,6.20
2018-03-29T22:00:08.984Z,6.20
2018-03-29T22:02:36.579Z,6.30
2018-03-29T22:05:03.597Z,6.30
2018-03-29T22:07:30.148Z,6.20
2018-03-29T22:09:56.428Z,6.20
2018-03-29T22:12:22.694Z,6.30
2018-03-29T22:14:49.403Z,6.30
2018-03-29T22:17:16.091Z,6.40
2018-03-29T22:19:42.340Z,6.40
2018-03-29T22:22:09.419Z,6.30
2018-03-29T22:24:37.717Z,6.30
2018-03-29T22:27:04.718Z,6.30
2018-03-29T22:29:31.590Z,6.30
2018-03-29T22:31:57.876Z,6.20
2018-03-29T22:34:24.611Z,6.20
2018-03-29T22:36:50.873Z,6.20
2018-03-29T22:39:17.132Z,6.30
2018-03-29T22:41:44.140Z,6.30
2018-03-29T22:44:10.868Z,6.30
2018-03-29T22:46:37.195Z,6.40
2018-03-29T22:49:05.069Z,6.40
2018-03-29T22:51:32.066Z,6.40
2018-03-29T22:53:58.356Z,6.40
2018-03-29T22:56:25.801Z,6.50
2018-03-29T22:58:52.042Z,6.40
2018-03-29T23:01:19.499Z,6.50
2018-03-29T23:03:46.323Z,6.50
2018-03-29T23:06:13.221Z,6.50
2018-03-29T23:08:39.518Z,6.50
2018-03-29T23:11:05.765Z,6.40
2018-03-29T23:13:32.566Z,6.40
2018-03-29T23:15:59.373Z,6.40
2018-03-29T23:18:26.923Z,6.50
2018-03-29T23:20:53.169Z,6.40
2018-03-29T23:23:20.157Z,6.50
2018-03-29T23:25:46.426Z,6.50
2018-03-29T23:28:12.686Z,6.40
2018-03-29T23:30:40.043Z,6.40
2018-03-29T23:33:07.547Z,6.40
2018-03-29T23:35:33.804Z,6.40
2018-03-29T23:38:00.051Z,6.40
2018-03-29T23:40:26.708Z,6.40
2018-03-29T23:42:53.700Z,6.40
2018-03-29T23:45:20.521Z,6.40
2018-03-29T23:47:47.870Z,6.40
2018-03-29T23:50:14.494Z,6.40
2018-03-29T23:52:40.745Z,6.40
2018-03-29T23:55:06.997Z,6.40
2018-03-29T23:57:33.995Z,6.40
